sensor_id;sensor_type;location;lat;lon;timestamp;temperature;humidity
30001;DHT22;16845;48.670;9.000;2022-12-20T00:00:18;6.30;99.90
30001;DHT22;16845;48.670;9.000;2022-12-20T00:02:46;6.30;99.90
30001;DHT22;16845;48.670;9.000;2022-12-20T00:05:14;6.30;99.90
30001;DHT22;16845;48.670;9.000;2022-12-20T00:07:43;6.30;99.90
30001;DHT22;16845;48.670;9.000;2022-12-20T00:10:11;6.20;99.90
30001;DHT22;16845;48.670;9.000;2022-12-20T00:12:39;6.20;99.90
30001;DHT22;16845;48.670;9.000;2022-12-20T00:15:07;6.10;99.90
30001;DHT22;16845;48.670;9.000;2022-12-20T00:17:37;6.20;99.90
30001;DHT22;16845;48.670;9.000;2022-12-20T00:20:07;6.20;99.90
30001;DHT22;16845;48.670;9.000;2022-12-20T00:22:35;6.20;99.90
30001;DHT22;16845;48.670;9.000;2022-12-20T00:25:04;6.30;99.90
30001;DHT22;16845;48.670;9.000;2022-12-20T00:27:32;6.20;99.90
30001;DHT22;16845;48.670;9.000;2022-12-20T00:30:01;6.10;99.90
30001;DHT22;16845;48.670;9.000;2022-12-20T00:32:29;6.20;99.90
30001;DHT22;16845;48.670;9.000;2022-12-20T00:34:59;6.30;99.90
30001;DHT22;16845;48.670;9.000;2022-12-20T00:37:27;6.40;99.90
30001;DHT22;16845;48.670;9.000;2022-12-20T00:39:55;6.40;99.90
30001;DHT22;16845;48.670;9.000;2022-12-20T00:42:23;6.40;99.90
30001;DHT22;16845;48.670;9.000;2022-12-20T00:44:52;6.40;99.90
30001;DHT22;16845;48.670;9.000;2022-12-20T00:47:20;6.50;99.90
30001;DHT22;16845;48.670;9.000;2022-12-20T00:49:48;6.50;99.90
30001;DHT22;16845;48.670;9.000;2022-12-20T00:52:18;6.50;99.90
30001;DHT22;16845;48.670;9.000;2022-12-20T00:54:45;6.40;99.90
30001;DHT22;16845;48.670;9.000;2022-12-20T00:57:13;6.40;99.90
30001;DHT22;16845;48.670;9.000;2022-12-20T00:59:42;6.40;99.90
30001;DHT22;16845;48.670;9.000;2022-12-20T01:02:10;6.40;99.90
30001;DHT22;16845;48.670;9.000;2022-12-20T01:04:38;6.40;99.90
30001;DHT22;16845;48.670;9.000;2022-12-20T01:07:06;6.30;99.90
30001;DHT22;16845;48.670;9.000;2022-12-20T01:09:36;6.30;99.90
30001;DHT22;16845;48.670;9.000;2022-12-20T01:12:04;6.30;99.90
30001;DHT22;16845;48.670;9.000;2022-12-20T01:14:33;6.20;99.90
30001;DHT22;16845;48.670;9.000;2022-12-20T01:17:01;6.20;99.90
30001;DHT22;16845;48.670;9.000;2022-12-20T01:19:29;6.20;99.90
30001;DHT22;16845;48.670;9.000;2022-12-20T01:21:58;6.10;99.90
30001;DHT22;16845;48.670;9.000;2022-12-20T01:24:26;6.20;99.90
30001;DHT22;16845;48.670;9.000;2022-12-20T01:26:55;6.20;99.90
30001;DHT22;16845;48.670;9.000;2022-12-20T01:29:23;6.20;99.90
30001;DHT22;16845;48.670;9.000;2022-12-20T01:31:51;6.20;99.90
30001;DHT22;16845;48.670;9.000;2022-12-20T01:34:20;6.20;99.90
30001;DHT22;16845;48.670;9.000;2022-12-20T01:36:48;6.20;99.90
30001;DHT22;16845;48.670;9.000;2022-12-20T01:39:17;6.10;99.90
30001;DHT22;16845;48.670;9.000;2022-12-20T01:41:46;6.00;99.90
30001;DHT22;16845;48.670;9.000;2022-12-20T01:44:56;6.00;99.90
30001;DHT22;16845;48.670;9.000;2022-12-20T01:47:25;6.10;99.90
30001;DHT22;16845;48.670;9.000;2022-12-20T01:49:55;6.10;99.90
30001;DHT22;16845;48.670;9.000;2022-12-20T01:52:28;6.10;99.90
30001;DHT22;16845;48.670;9.000;2022-12-20T01:55:04;6.00;99.90
30001;DHT22;16845;48.670;9.000;2022-12-20T01:57:37;6.00;99.90
30001;DHT22;16845;48.670;9.000;2022-12-20T02:00:09;6.00;99.90
30001;DHT22;16845;48.670;9.000;2022-12-20T02:02:38;6.00;99.90
30001;DHT22;16845;48.670;9.000;2022-12-20T02:05:07;6.00;99.90
30001;DHT22;16845;48.670;9.000;2022-12-20T02:07:37;6.00;99.90
30001;DHT22;16845;48.670;9.000;2022-12-20T02:10:07;6.10;99.90
30001;DHT22;16845;48.670;9.000;2022-12-20T02:12:39;6.00;99.90
30001;DHT22;16845;48.670;9.000;2022-12-20T02:15:33;5.90;99.90
30001;DHT22;16845;48.670;9.000;2022-12-20T02:18:19;5.90;99.90
30001;DHT22;16845;48.670;9.000;2022-12-20T02:21:01;6.00;99.90
30001;DHT22;16845;48.670;9.000;2022-12-20T02:24:02;5.90;99.90
30001;DHT22;16845;48.670;9.000;2022-12-20T02:30:04;6.00;99.90
30001;DHT22;16845;48.670;9.000;2022-12-20T02:32:37;6.00;99.90
30001;DHT22;16845;48.670;9.000;2022-12-20T02:35:07;6.00;99.90
30001;DHT22;16845;48.670;9.000;2022-12-20T02:37:35;6.00;99.90
30001;DHT22;16845;48.670;9.000;2022-12-20T02:40:04;6.00;99.90
30001;DHT22;16845;48.670;9.000;2022-12-20T02:42:33;6.00;99.90
30001;DHT22;16845;48.670;9.000;2022-12-20T02:45:06;6.00;99.90
30001;DHT22;16845;48.670;9.000;2022-12-20T02:47:48;6.00;99.90
30001;DHT22;16845;48.670;9.000;2022-12-20T02:50:21;6.00;99.90
30001;DHT22;16845;48.670;9.000;2022-12-20T02:52:50;6.00;99.90
30001;DHT22;16845;48.670;9.000;2022-12-20T02:55:23;6.00;99.90
30001;DHT22;16845;48.670;9.000;2022-12-20T02:57:58;6.00;99.90
30001;DHT22;16845;48.670;9.000;2022-12-20T03:00:31;5.90;99.90
30001;DHT22;16845;48.670;9.000;2022-12-20T03:03:03;6.00;99.90
30001;DHT22;16845;48.670;9.000;2022-12-20T03:05:53;6.00;99.90
30001;DHT22;16845;48.670;9.000;2022-12-20T03:08:22;6.00;99.90
30001;DHT22;16845;48.670;9.000;2022-12-20T03:10:52;6.10;99.90
30001;DHT22;16845;48.670;9.000;2022-12-20T03:13:20;6.00;99.90
30001;DHT22;16845;48.670;9.000;2022-12-20T03:15:50;6.10;99.90
30001;DHT22;16845;48.670;9.000;2022-12-20T03:18:18;6.10;99.90
30001;DHT22;16845;48.670;9.000;2022-12-20T03:20:46;6.10;99.90
30001;DHT22;16845;48.670;9.000;2022-12-20T03:23:14;6.10;99.90
30001;DHT22;16845;48.670;9.000;2022-12-20T03:25:42;6.00;99.90
30001;DHT22;16845;48.670;9.000;2022-12-20T03:28:10;6.00;99.90
30001;DHT22;16845;48.670;9.000;2022-12-20T03:30:38;6.10;99.90
30001;DHT22;16845;48.670;9.000;2022-12-20T03:33:07;6.00;99.90
30001;DHT22;16845;48.670;9.000;2022-12-20T03:35:35;5.90;99.90
30001;DHT22;16845;48.670;9.000;2022-12-20T03:38:03;5.90;99.90
30001;DHT22;16845;48.670;9.000;2022-12-20T03:40:31;6.00;99.90
30001;DHT22;16845;48.670;9.000;2022-12-20T03:42:59;6.00;99.90
30001;DHT22;16845;48.670;9.000;2022-12-20T03:45:27;5.80;99.90
30001;DHT22;16845;48.670;9.000;2022-12-20T03:47:56;5.90;99.90
30001;DHT22;16845;48.670;9.000;2022-12-20T03:50:25;5.90;99.90
30001;DHT22;16845;48.670;9.000;2022-12-20T03:52:53;5.80;99.90
30001;DHT22;16845;48.670;9.000;2022-12-20T03:55:21;5.80;99.90
30001;DHT22;16845;48.670;9.000;2022-12-20T03:57:49;5.90;99.90
30001;DHT22;16845;48.670;9.000;2022-12-20T04:00:18;5.90;99.90
30001;DHT22;16845;48.670;9.000;2022-12-20T04:02:46;5.90;99.90
30001;DHT22;16845;48.670;9.000;2022-12-20T04:05:14;6.00;99.90
30001;DHT22;16845;48.670;9.000;2022-12-20T04:07:44;5.80;99.90
30001;DHT22;16845;48.670;9.000;2022-12-20T04:10:12;5.90;99.90
30001;DHT22;16845;48.670;9.000;2022-12-20T04:12:40;5.90;99.90
30001;DHT22;16845;48.670;9.000;2022-12-20T04:15:08;6.00;99.90
30001;DHT22;16845;48.670;9.000;2022-12-20T04:17:36;6.20;99.90
30001;DHT22;16845;48.670;9.000;2022-12-20T04:20:06;6.30;99.90
30001;DHT22;16845;48.670;9.000;2022-12-20T04:22:47;6.40;99.90
30001;DHT22;16845;48.670;9.000;2022-12-20T04:25:17;6.40;99.90
30001;DHT22;16845;48.670;9.000;2022-12-20T04:27:46;6.30;99.90
30001;DHT22;16845;48.670;9.000;2022-12-20T04:30:14;6.40;99.90
30001;DHT22;16845;48.670;9.000;2022-12-20T04:32:42;6.30;99.90
30001;DHT22;16845;48.670;9.000;2022-12-20T04:35:10;6.30;99.90
30001;DHT22;16845;48.670;9.000;2022-12-20T04:37:38;6.20;99.90
30001;DHT22;16845;48.670;9.000;2022-12-20T04:40:09;6.20;99.90
30001;DHT22;16845;48.670;9.000;2022-12-20T04:42:37;6.10;99.90
30001;DHT22;16845;48.670;9.000;2022-12-20T04:45:06;6.10;99.90
30001;DHT22;16845;48.670;9.000;2022-12-20T04:47:34;6.10;99.90
30001;DHT22;16845;48.670;9.000;2022-12-20T04:50:02;5.90;99.90
30001;DHT22;16845;48.670;9.000;2022-12-20T04:52:29;5.70;99.90
30001;DHT22;16845;48.670;9.000;2022-12-20T04:55:16;5.80;99.90
30001;DHT22;16845;48.670;9.000;2022-12-20T04:57:44;5.90;99.90
30001;DHT22;16845;48.670;9.000;2022-12-20T05:00:13;6.00;99.90
30001;DHT22;16845;48.670;9.000;2022-12-20T05:02:43;6.00;99.90
30001;DHT22;16845;48.670;9.000;2022-12-20T05:05:11;6.10;99.90
30001;DHT22;16845;48.670;9.000;2022-12-20T05:07:39;6.20;99.90
30001;DHT22;16845;48.670;9.000;2022-12-20T05:10:08;6.30;99.90
30001;DHT22;16845;48.670;9.000;2022-12-20T05:12:37;6.30;99.90
30001;DHT22;16845;48.670;9.000;2022-12-20T05:15:06;6.30;99.90
30001;DHT22;16845;48.670;9.000;2022-12-20T05:17:34;6.30;99.90
30001;DHT22;16845;48.670;9.000;2022-12-20T05:20:03;6.30;99.90
30001;DHT22;16845;48.670;9.000;2022-12-20T05:22:31;6.20;99.90
30001;DHT22;16845;48.670;9.000;2022-12-20T05:25:17;6.20;99.90
30001;DHT22;16845;48.670;9.000;2022-12-20T05:28:04;6.20;99.90
30001;DHT22;16845;48.670;9.000;2022-12-20T05:30:32;6.20;99.90
30001;DHT22;16845;48.670;9.000;2022-12-20T05:33:00;6.20;99.90
30001;DHT22;16845;48.670;9.000;2022-12-20T05:35:28;6.30;99.90
30001;DHT22;16845;48.670;9.000;2022-12-20T05:37:56;6.30;99.90
30001;DHT22;16845;48.670;9.000;2022-12-20T05:40:24;6.30;99.90
30001;DHT22;16845;48.670;9.000;2022-12-20T05:42:53;6.30;99.90
30001;DHT22;16845;48.670;9.000;2022-12-20T05:45:22;6.30;99.90
30001;DHT22;16845;48.670;9.000;2022-12-20T05:47:50;6.30;99.90
30001;DHT22;16845;48.670;9.000;2022-12-20T05:50:18;6.30;99.90
30001;DHT22;16845;48.670;9.000;2022-12-20T05:52:46;6.30;99.90
30001;DHT22;16845;48.670;9.000;2022-12-20T05:55:14;6.20;99.90
30001;DHT22;16845;48.670;9.000;2022-12-20T05:57:42;6.20;99.90
30001;DHT22;16845;48.670;9.000;2022-12-20T06:00:11;6.00;99.90
30001;DHT22;16845;48.670;9.000;2022-12-20T06:02:41;6.10;99.90
30001;DHT22;16845;48.670;9.000;2022-12-20T06:05:09;6.20;99.90
30001;DHT22;16845;48.670;9.000;2022-12-20T06:07:38;6.30;99.90
30001;DHT22;16845;48.670;9.000;2022-12-20T06:10:08;6.30;99.90
30001;DHT22;16845;48.670;9.000;2022-12-20T06:12:37;6.30;99.90
30001;DHT22;16845;48.670;9.000;2022-12-20T06:15:06;6.40;99.90
30001;DHT22;16845;48.670;9.000;2022-12-20T06:17:35;6.50;99.90
30001;DHT22;16845;48.670;9.000;2022-12-20T06:20:06;6.60;99.90
30001;DHT22;16845;48.670;9.000;2022-12-20T06:22:34;6.60;99.90
30001;DHT22;16845;48.670;9.000;2022-12-20T06:25:03;6.60;99.90
30001;DHT22;16845;48.670;9.000;2022-12-20T06:27:32;6.50;99.90
30001;DHT22;16845;48.670;9.000;2022-12-20T06:30:00;6.50;99.90
30001;DHT22;16845;48.670;9.000;2022-12-20T06:32:28;6.70;99.90
30001;DHT22;16845;48.670;9.000;2022-12-20T06:34:56;6.70;99.90
30001;DHT22;16845;48.670;9.000;2022-12-20T06:37:27;6.80;99.90
30001;DHT22;16845;48.670;9.000;2022-12-20T06:39:55;7.00;99.90
30001;DHT22;16845;48.670;9.000;2022-12-20T06:42:24;6.90;99.90
30001;DHT22;16845;48.670;9.000;2022-12-20T06:44:52;7.00;99.90
30001;DHT22;16845;48.670;9.000;2022-12-20T06:47:20;7.10;99.90
30001;DHT22;16845;48.670;9.000;2022-12-20T06:49:49;7.10;99.90
30001;DHT22;16845;48.670;9.000;2022-12-20T06:52:17;6.90;99.90
30001;DHT22;16845;48.670;9.000;2022-12-20T06:54:47;6.90;99.90
30001;DHT22;16845;48.670;9.000;2022-12-20T06:57:15;6.90;99.90
30001;DHT22;16845;48.670;9.000;2022-12-20T06:59:43;7.00;99.90
30001;DHT22;16845;48.670;9.000;2022-12-20T07:02:11;7.10;99.90
30001;DHT22;16845;48.670;9.000;2022-12-20T07:04:40;7.20;99.90
30001;DHT22;16845;48.670;9.000;2022-12-20T07:07:08;7.30;99.90
30001;DHT22;16845;48.670;9.000;2022-12-20T07:09:36;7.30;99.90
30001;DHT22;16845;48.670;9.000;2022-12-20T07:12:09;7.40;99.90
30001;DHT22;16845;48.670;9.000;2022-12-20T07:14:37;7.40;99.90
30001;DHT22;16845;48.670;9.000;2022-12-20T07:17:06;7.40;99.90
30001;DHT22;16845;48.670;9.000;2022-12-20T07:19:34;7.50;99.90
30001;DHT22;16845;48.670;9.000;2022-12-20T07:22:03;7.50;99.90
30001;DHT22;16845;48.670;9.000;2022-12-20T07:24:31;7.50;99.90
30001;DHT22;16845;48.670;9.000;2022-12-20T07:27:00;7.40;99.90
30001;DHT22;16845;48.670;9.000;2022-12-20T07:29:30;7.50;99.90
30001;DHT22;16845;48.670;9.000;2022-12-20T07:31:58;7.50;99.90
30001;DHT22;16845;48.670;9.000;2022-12-20T07:34:26;7.50;99.90
30001;DHT22;16845;48.670;9.000;2022-12-20T07:36:55;7.40;99.90
30001;DHT22;16845;48.670;9.000;2022-12-20T07:39:23;7.40;99.90
30001;DHT22;16845;48.670;9.000;2022-12-20T07:41:52;7.40;99.90
30001;DHT22;16845;48.670;9.000;2022-12-20T07:44:21;7.40;99.90
30001;DHT22;16845;48.670;9.000;2022-12-20T07:46:51;7.40;99.90
30001;DHT22;16845;48.670;9.000;2022-12-20T07:49:19;7.40;99.90
30001;DHT22;16845;48.670;9.000;2022-12-20T07:51:49;7.40;99.90
30001;DHT22;16845;48.670;9.000;2022-12-20T07:54:21;7.40;99.90
30001;DHT22;16845;48.670;9.000;2022-12-20T07:56:53;7.30;99.90
30001;DHT22;16845;48.670;9.000;2022-12-20T07:59:25;7.30;99.90
30001;DHT22;16845;48.670;9.000;2022-12-20T08:01:57;7.30;99.90
30001;DHT22;16845;48.670;9.000;2022-12-20T08:04:31;7.30;99.90
30001;DHT22;16845;48.670;9.000;2022-12-20T08:07:00;7.20;99.90
30001;DHT22;16845;48.670;9.000;2022-12-20T08:09:35;7.20;99.90
30001;DHT22;16845;48.670;9.000;2022-12-20T08:12:06;7.20;99.90
30001;DHT22;16845;48.670;9.000;2022-12-20T08:14:35;7.20;99.90
30001;DHT22;16845;48.670;9.000;2022-12-20T08:17:05;7.20;99.90
30001;DHT22;16845;48.670;9.000;2022-12-20T08:19:33;7.30;99.90
30001;DHT22;16845;48.670;9.000;2022-12-20T08:22:02;7.30;99.90
30001;DHT22;16845;48.670;9.000;2022-12-20T08:24:32;7.20;99.90
30001;DHT22;16845;48.670;9.000;2022-12-20T08:27:00;7.20;99.90
30001;DHT22;16845;48.670;9.000;2022-12-20T08:29:28;7.30;99.90
30001;DHT22;16845;48.670;9.000;2022-12-20T08:31:56;7.30;99.90
30001;DHT22;16845;48.670;9.000;2022-12-20T08:34:25;7.30;99.90
30001;DHT22;16845;48.670;9.000;2022-12-20T08:36:53;7.30;99.90
30001;DHT22;16845;48.670;9.000;2022-12-20T08:39:21;7.30;99.90
30001;DHT22;16845;48.670;9.000;2022-12-20T08:41:49;7.40;99.90
30001;DHT22;16845;48.670;9.000;2022-12-20T08:44:17;7.40;99.90
30001;DHT22;16845;48.670;9.000;2022-12-20T08:46:46;7.40;99.90
30001;DHT22;16845;48.670;9.000;2022-12-20T08:49:14;7.50;99.90
30001;DHT22;16845;48.670;9.000;2022-12-20T08:51:44;7.60;99.90
30001;DHT22;16845;48.670;9.000;2022-12-20T08:54:12;7.60;99.90
30001;DHT22;16845;48.670;9.000;2022-12-20T08:56:40;7.60;99.90
30001;DHT22;16845;48.670;9.000;2022-12-20T08:59:08;7.70;99.90
30001;DHT22;16845;48.670;9.000;2022-12-20T09:01:37;7.70;99.90
30001;DHT22;16845;48.670;9.000;2022-12-20T09:04:05;7.70;99.90
30001;DHT22;16845;48.670;9.000;2022-12-20T09:06:34;7.70;99.90
30001;DHT22;16845;48.670;9.000;2022-12-20T09:09:03;7.80;99.90
30001;DHT22;16845;48.670;9.000;2022-12-20T09:11:33;7.80;99.90
30001;DHT22;16845;48.670;9.000;2022-12-20T09:14:01;7.90;99.90
30001;DHT22;16845;48.670;9.000;2022-12-20T09:16:31;7.90;99.90
30001;DHT22;16845;48.670;9.000;2022-12-20T09:19:00;7.90;99.90
30001;DHT22;16845;48.670;9.000;2022-12-20T09:21:32;7.90;99.90
30001;DHT22;16845;48.670;9.000;2022-12-20T09:24:00;7.80;99.90
30001;DHT22;16845;48.670;9.000;2022-12-20T09:26:30;7.80;99.90
30001;DHT22;16845;48.670;9.000;2022-12-20T09:28:58;7.80;99.90
30001;DHT22;16845;48.670;9.000;2022-12-20T09:31:28;7.90;99.90
30001;DHT22;16845;48.670;9.000;2022-12-20T09:33:58;8.00;99.90
30001;DHT22;16845;48.670;9.000;2022-12-20T09:36:28;8.10;99.90
30001;DHT22;16845;48.670;9.000;2022-12-20T09:38:56;8.10;99.90
30001;DHT22;16845;48.670;9.000;2022-12-20T09:41:30;8.20;99.90
30001;DHT22;16845;48.670;9.000;2022-12-20T09:44:03;8.30;99.90
30001;DHT22;16845;48.670;9.000;2022-12-20T09:46:32;8.50;99.90
30001;DHT22;16845;48.670;9.000;2022-12-20T09:49:01;8.60;99.90
30001;DHT22;16845;48.670;9.000;2022-12-20T09:51:57;8.80;99.90
30001;DHT22;16845;48.670;9.000;2022-12-20T09:54:33;9.00;99.90
30001;DHT22;16845;48.670;9.000;2022-12-20T09:57:13;9.10;99.90
30001;DHT22;16845;48.670;9.000;2022-12-20T09:59:43;9.10;99.90
30001;DHT22;16845;48.670;9.000;2022-12-20T10:02:19;9.10;99.90
30001;DHT22;16845;48.670;9.000;2022-12-20T10:05:12;9.10;99.90
30001;DHT22;16845;48.670;9.000;2022-12-20T10:07:48;8.90;99.90
30001;DHT22;16845;48.670;9.000;2022-12-20T10:10:34;9.00;99.90
30001;DHT22;16845;48.670;9.000;2022-12-20T10:13:22;8.90;99.90
30001;DHT22;16845;48.670;9.000;2022-12-20T10:15:58;8.80;99.90
30001;DHT22;16845;48.670;9.000;2022-12-20T10:18:44;8.70;99.90
30001;DHT22;16845;48.670;9.000;2022-12-20T10:21:20;8.70;99.90
30001;DHT22;16845;48.670;9.000;2022-12-20T10:23:58;8.70;99.90
30001;DHT22;16845;48.670;9.000;2022-12-20T10:26:28;8.60;99.90
30001;DHT22;16845;48.670;9.000;2022-12-20T10:28:58;8.60;99.90
30001;DHT22;16845;48.670;9.000;2022-12-20T10:31:27;8.60;99.90
30001;DHT22;16845;48.670;9.000;2022-12-20T10:33:55;8.50;99.90
30001;DHT22;16845;48.670;9.000;2022-12-20T10:36:25;8.40;99.90
30001;DHT22;16845;48.670;9.000;2022-12-20T10:38:56;8.40;99.90
30001;DHT22;16845;48.670;9.000;2022-12-20T10:41:26;8.50;99.90
30001;DHT22;16845;48.670;9.000;2022-12-20T10:44:00;8.40;99.90
30001;DHT22;16845;48.670;9.000;2022-12-20T10:46:37;8.50;99.90
30001;DHT22;16845;48.670;9.000;2022-12-20T10:49:26;8.40;99.90
30001;DHT22;16845;48.670;9.000;2022-12-20T10:51:56;8.40;99.90
30001;DHT22;16845;48.670;9.000;2022-12-20T10:54:30;8.50;99.90
30001;DHT22;16845;48.670;9.000;2022-12-20T10:57:00;8.50;99.90
30001;DHT22;16845;48.670;9.000;2022-12-20T10:59:32;8.60;99.90
30001;DHT22;16845;48.670;9.000;2022-12-20T11:02:08;8.70;99.90
30001;DHT22;16845;48.670;9.000;2022-12-20T11:04:57;8.70;99.90
30001;DHT22;16845;48.670;9.000;2022-12-20T11:07:29;8.90;99.90
30001;DHT22;16845;48.670;9.000;2022-12-20T11:09:59;8.90;99.90
30001;DHT22;16845;48.670;9.000;2022-12-20T11:12:28;8.90;99.90
30001;DHT22;16845;48.670;9.000;2022-12-20T11:15:10;9.00;99.90
30001;DHT22;16845;48.670;9.000;2022-12-20T11:17:58;9.10;99.90
30001;DHT22;16845;48.670;9.000;2022-12-20T11:20:35;9.10;99.90
30001;DHT22;16845;48.670;9.000;2022-12-20T11:23:15;9.10;99.90
30001;DHT22;16845;48.670;9.000;2022-12-20T11:26:05;9.10;99.90
30001;DHT22;16845;48.670;9.000;2022-12-20T11:28:46;9.00;99.90
30001;DHT22;16845;48.670;9.000;2022-12-20T11:31:25;9.00;99.90
30001;DHT22;16845;48.670;9.000;2022-12-20T11:34:02;9.00;99.90
30001;DHT22;16845;48.670;9.000;2022-12-20T11:36:48;8.90;99.90
30001;DHT22;16845;48.670;9.000;2022-12-20T11:39:28;8.90;99.90
30001;DHT22;16845;48.670;9.000;2022-12-20T11:42:01;8.80;99.90
30001;DHT22;16845;48.670;9.000;2022-12-20T11:44:42;8.90;99.90
30001;DHT22;16845;48.670;9.000;2022-12-20T11:47:39;8.90;99.90
30001;DHT22;16845;48.670;9.000;2022-12-20T11:50:41;8.90;99.90
30001;DHT22;16845;48.670;9.000;2022-12-20T11:53:17;9.00;99.90
30001;DHT22;16845;48.670;9.000;2022-12-20T11:55:48;9.10;99.90
30001;DHT22;16845;48.670;9.000;2022-12-20T11:58:21;9.00;99.90
30001;DHT22;16845;48.670;9.000;2022-12-20T12:00:55;9.00;99.90
30001;DHT22;16845;48.670;9.000;2022-12-20T12:03:32;9.00;99.90
30001;DHT22;16845;48.670;9.000;2022-12-20T12:06:04;8.90;99.90
30001;DHT22;16845;48.670;9.000;2022-12-20T12:08:40;8.90;99.90
30001;DHT22;16845;48.670;9.000;2022-12-20T12:11:14;8.90;99.90
30001;DHT22;16845;48.670;9.000;2022-12-20T12:14:05;8.90;99.90
30001;DHT22;16845;48.670;9.000;2022-12-20T12:16:34;9.00;99.90
30001;DHT22;16845;48.670;9.000;2022-12-20T12:19:08;9.00;99.90
30001;DHT22;16845;48.670;9.000;2022-12-20T12:21:41;9.00;99.90
30001;DHT22;16845;48.670;9.000;2022-12-20T12:24:18;9.00;99.90
30001;DHT22;16845;48.670;9.000;2022-12-20T12:26:49;9.00;99.90
30001;DHT22;16845;48.670;9.000;2022-12-20T12:29:19;9.00;99.90
30001;DHT22;16845;48.670;9.000;2022-12-20T12:31:50;9.00;99.90
30001;DHT22;16845;48.670;9.000;2022-12-20T12:34:31;9.00;99.90
30001;DHT22;16845;48.670;9.000;2022-12-20T12:37:33;9.00;99.90
30001;DHT22;16845;48.670;9.000;2022-12-20T12:40:29;9.00;99.90
30001;DHT22;16845;48.670;9.000;2022-12-20T12:43:13;9.00;99.90
30001;DHT22;16845;48.670;9.000;2022-12-20T12:45:45;9.00;99.90
30001;DHT22;16845;48.670;9.000;2022-12-20T12:48:18;9.00;99.90
30001;DHT22;16845;48.670;9.000;2022-12-20T12:50:50;9.00;99.90
30001;DHT22;16845;48.670;9.000;2022-12-20T12:53:22;9.00;99.90
30001;DHT22;16845;48.670;9.000;2022-12-20T12:55:54;8.90;99.90
30001;DHT22;16845;48.670;9.000;2022-12-20T12:58:43;8.90;99.90
30001;DHT22;16845;48.670;9.000;2022-12-20T13:01:47;9.00;99.90
30001;DHT22;16845;48.670;9.000;2022-12-20T13:04:24;9.00;99.90
30001;DHT22;16845;48.670;9.000;2022-12-20T13:06:57;9.00;99.90
30001;DHT22;16845;48.670;9.000;2022-12-20T13:09:37;9.00;99.90
30001;DHT22;16845;48.670;9.000;2022-12-20T13:15:48;9.00;99.90
30001;DHT22;16845;48.670;9.000;2022-12-20T13:18:24;8.90;99.90
30001;DHT22;16845;48.670;9.000;2022-12-20T13:21:15;8.80;99.90
30001;DHT22;16845;48.670;9.000;2022-12-20T13:23:45;8.80;99.90
30001;DHT22;16845;48.670;9.000;2022-12-20T13:26:41;8.70;99.90
30001;DHT22;16845;48.670;9.000;2022-12-20T13:29:24;8.70;99.90
30001;DHT22;16845;48.670;9.000;2022-12-20T13:31:52;8.70;99.90
30001;DHT22;16845;48.670;9.000;2022-12-20T13:34:53;8.70;99.90
30001;DHT22;16845;48.670;9.000;2022-12-20T13:37:26;8.70;99.90
30001;DHT22;16845;48.670;9.000;2022-12-20T13:39:56;8.80;99.90
30001;DHT22;16845;48.670;9.000;2022-12-20T13:42:33;8.70;99.90
30001;DHT22;16845;48.670;9.000;2022-12-20T13:45:08;8.90;99.90
30001;DHT22;16845;48.670;9.000;2022-12-20T13:47:41;8.80;99.90
30001;DHT22;16845;48.670;9.000;2022-12-20T13:50:26;8.90;99.90
30001;DHT22;16845;48.670;9.000;2022-12-20T13:52:54;8.80;99.90
30001;DHT22;16845;48.670;9.000;2022-12-20T13:55:31;8.80;99.90
30001;DHT22;16845;48.670;9.000;2022-12-20T13:58:04;8.90;99.90
30001;DHT22;16845;48.670;9.000;2022-12-20T14:00:33;9.20;99.90
30001;DHT22;16845;48.670;9.000;2022-12-20T14:03:01;9.30;99.90
30001;DHT22;16845;48.670;9.000;2022-12-20T14:05:36;9.30;99.90
30001;DHT22;16845;48.670;9.000;2022-12-20T14:08:06;9.30;99.90
30001;DHT22;16845;48.670;9.000;2022-12-20T14:10:36;9.40;99.90
30001;DHT22;16845;48.670;9.000;2022-12-20T14:13:18;9.40;99.90
30001;DHT22;16845;48.670;9.000;2022-12-20T14:15:46;9.40;99.90
30001;DHT22;16845;48.670;9.000;2022-12-20T14:18:17;9.30;99.90
30001;DHT22;16845;48.670;9.000;2022-12-20T14:20:48;9.20;99.90
30001;DHT22;16845;48.670;9.000;2022-12-20T14:23:20;9.10;99.90
30001;DHT22;16845;48.670;9.000;2022-12-20T14:25:52;9.00;99.90
30001;DHT22;16845;48.670;9.000;2022-12-20T14:28:28;9.00;99.90
30001;DHT22;16845;48.670;9.000;2022-12-20T14:30:58;9.00;99.90
30001;DHT22;16845;48.670;9.000;2022-12-20T14:33:30;9.00;99.90
30001;DHT22;16845;48.670;9.000;2022-12-20T14:36:08;8.90;99.90
30001;DHT22;16845;48.670;9.000;2022-12-20T14:38:38;9.00;99.90
30001;DHT22;16845;48.670;9.000;2022-12-20T14:41:29;9.00;99.90
30001;DHT22;16845;48.670;9.000;2022-12-20T14:44:01;8.90;99.90
30001;DHT22;16845;48.670;9.000;2022-12-20T14:46:30;8.80;99.90
30001;DHT22;16845;48.670;9.000;2022-12-20T14:49:10;8.70;99.90
30001;DHT22;16845;48.670;9.000;2022-12-20T14:51:42;8.70;99.90
30001;DHT22;16845;48.670;9.000;2022-12-20T14:54:15;8.60;99.90
30001;DHT22;16845;48.670;9.000;2022-12-20T14:57:10;8.70;99.90
30001;DHT22;16845;48.670;9.000;2022-12-20T14:59:38;8.70;99.90
30001;DHT22;16845;48.670;9.000;2022-12-20T15:02:32;8.70;99.90
30001;DHT22;16845;48.670;9.000;2022-12-20T15:05:08;8.70;99.90
30001;DHT22;16845;48.670;9.000;2022-12-20T15:07:39;8.60;99.90
30001;DHT22;16845;48.670;9.000;2022-12-20T15:10:08;8.60;99.90
30001;DHT22;16845;48.670;9.000;2022-12-20T15:12:39;8.60;99.90
30001;DHT22;16845;48.670;9.000;2022-12-20T15:15:11;8.60;99.90
30001;DHT22;16845;48.670;9.000;2022-12-20T15:17:55;8.50;99.90
30001;DHT22;16845;48.670;9.000;2022-12-20T15:20:23;8.50;99.90
30001;DHT22;16845;48.670;9.000;2022-12-20T15:22:51;8.50;99.90
30001;DHT22;16845;48.670;9.000;2022-12-20T15:25:18;8.70;99.90
30001;DHT22;16845;48.670;9.000;2022-12-20T15:27:48;8.70;99.90
30001;DHT22;16845;48.670;9.000;2022-12-20T15:30:17;8.80;99.90
30001;DHT22;16845;48.670;9.000;2022-12-20T15:32:45;8.90;99.90
30001;DHT22;16845;48.670;9.000;2022-12-20T15:35:21;9.00;99.90
30001;DHT22;16845;48.670;9.000;2022-12-20T15:37:50;9.00;99.90
30001;DHT22;16845;48.670;9.000;2022-12-20T15:40:18;9.10;99.90
30001;DHT22;16845;48.670;9.000;2022-12-20T15:42:48;9.10;99.90
30001;DHT22;16845;48.670;9.000;2022-12-20T15:45:16;9.10;99.90
30001;DHT22;16845;48.670;9.000;2022-12-20T15:47:44;9.20;99.90
30001;DHT22;16845;48.670;9.000;2022-12-20T15:50:13;9.30;99.90
30001;DHT22;16845;48.670;9.000;2022-12-20T15:52:41;9.20;99.90
30001;DHT22;16845;48.670;9.000;2022-12-20T15:55:10;9.30;99.90
30001;DHT22;16845;48.670;9.000;2022-12-20T15:57:38;9.30;99.90
30001;DHT22;16845;48.670;9.000;2022-12-20T16:00:10;9.30;99.90
30001;DHT22;16845;48.670;9.000;2022-12-20T16:02:39;9.40;99.90
30001;DHT22;16845;48.670;9.000;2022-12-20T16:05:10;9.30;99.90
30001;DHT22;16845;48.670;9.000;2022-12-20T16:07:39;9.40;99.90
30001;DHT22;16845;48.670;9.000;2022-12-20T16:10:11;9.40;99.90
30001;DHT22;16845;48.670;9.000;2022-12-20T16:12:40;9.40;99.90
30001;DHT22;16845;48.670;9.000;2022-12-20T16:15:18;9.40;99.90
30001;DHT22;16845;48.670;9.000;2022-12-20T16:17:47;9.50;99.90
30001;DHT22;16845;48.670;9.000;2022-12-20T16:20:15;9.60;99.90
30001;DHT22;16845;48.670;9.000;2022-12-20T16:22:43;9.60;99.90